createdAt,value
2023-01-17T00:01:55.179Z,89.59
2023-01-17T00:04:40.573Z,89.78
2023-01-17T00:07:29.184Z,90.65
2023-01-17T00:09:57.762Z,89.58
2023-01-17T00:12:27.343Z,90.27
2023-01-17T00:14:58.565Z,90.17
2023-01-17T00:17:28.717Z,90.45
2023-01-17T00:20:26.373Z,90.00
2023-01-17T00:23:08.155Z,90.02
2023-01-17T00:25:56.688Z,91.13
2023-01-17T00:28:26.203Z,90.25
2023-01-17T00:30:54.504Z,91.75
2023-01-17T00:33:22.447Z,92.09
2023-01-17T00:35:49.877Z,92.79
2023-01-17T00:38:18.478Z,93.29
2023-01-17T00:40:46.830Z,93.34
2023-01-17T00:43:34.656Z,94.14
2023-01-17T00:46:21.985Z,92.90
2023-01-17T00:49:11.120Z,93.98
2023-01-17T00:51:58.985Z,94.36
2023-01-17T00:54:44.431Z,94.78
2023-01-17T00:57:30.148Z,95.40
2023-01-17T01:00:15.448Z,95.15
2023-01-17T01:03:02.171Z,95.23
2023-01-17T01:05:47.341Z,95.24
2023-01-17T01:08:38.169Z,94.00
2023-01-17T01:11:25.905Z,94.66
2023-01-17T01:14:11.243Z,95.50
2023-01-17T01:16:56.488Z,95.23
2023-01-17T01:19:43.472Z,95.55
2023-01-17T01:22:28.701Z,95.58
2023-01-17T01:25:14.020Z,95.86
2023-01-17T01:27:59.355Z,96.18
2023-01-17T01:30:44.582Z,96.18
2023-01-17T01:33:18.676Z,96.51
2023-01-17T01:35:51.712Z,96.12
2023-01-17T01:38:20.559Z,96.38
2023-01-17T01:40:51.591Z,95.83
2023-01-17T01:43:21.664Z,96.15
2023-01-17T01:45:54.263Z,96.37
2023-01-17T01:48:36.623Z,96.29
2023-01-17T01:51:10.515Z,95.93
2023-01-17T01:53:41.289Z,95.83
2023-01-17T01:56:12.287Z,95.33
2023-01-17T01:58:42.662Z,95.22
2023-01-17T02:01:11.110Z,96.24
2023-01-17T02:03:41.945Z,94.31
2023-01-17T02:06:21.636Z,95.03
2023-01-17T02:08:50.111Z,95.42
2023-01-17T02:11:18.397Z,94.32
2023-01-17T02:13:46.443Z,94.86
2023-01-17T02:16:25.699Z,93.75
2023-01-17T02:19:06.147Z,93.94
2023-01-17T02:21:40.217Z,93.90
2023-01-17T02:24:44.690Z,94.57
2023-01-17T02:27:22.732Z,92.58
2023-01-17T02:30:21.437Z,91.72
2023-01-17T02:33:07.538Z,92.74
2023-01-17T02:35:43.862Z,92.07
2023-01-17T02:38:20.663Z,93.38
2023-01-17T02:40:51.010Z,93.01
2023-01-17T02:43:21.089Z,92.00
2023-01-17T02:45:49.125Z,93.78
2023-01-17T02:48:23.652Z,92.58
2023-01-17T02:51:04.533Z,92.23
2023-01-17T02:53:43.061Z,93.19
2023-01-17T02:56:24.148Z,91.39
2023-01-17T02:59:11.519Z,92.63
2023-01-17T03:01:59.494Z,93.34
2023-01-17T03:04:38.846Z,93.28
2023-01-17T03:07:12.558Z,91.78
2023-01-17T03:09:43.678Z,91.63
2023-01-17T03:12:11.675Z,91.84
2023-01-17T03:14:39.913Z,92.04
2023-01-17T03:17:08.360Z,91.64
2023-01-17T03:19:37.731Z,91.46
2023-01-17T03:22:05.725Z,92.36
2023-01-17T03:24:33.642Z,93.24
2023-01-17T03:27:01.561Z,93.06
2023-01-17T03:29:29.536Z,95.11
2023-01-17T03:31:58.212Z,95.20
2023-01-17T03:34:26.125Z,96.53
2023-01-17T03:36:55.891Z,97.05
2023-01-17T03:39:24.013Z,97.43
2023-01-17T03:41:52.047Z,97.05
2023-01-17T03:44:20.056Z,96.99
2023-01-17T03:46:47.944Z,96.25
2023-01-17T03:49:16.652Z,95.40
2023-01-17T03:51:44.642Z,94.56
2023-01-17T03:54:14.042Z,94.78
2023-01-17T03:56:42.011Z,95.60
2023-01-17T03:59:12.234Z,96.08
2023-01-17T04:01:41.239Z,95.09
2023-01-17T04:04:09.293Z,95.33
2023-01-17T04:06:37.201Z,95.76
2023-01-17T04:09:05.157Z,94.64
2023-01-17T04:11:34.553Z,95.88
2023-01-17T04:14:02.528Z,95.69
2023-01-17T04:16:32.109Z,93.30
2023-01-17T04:19:00.133Z,94.81
2023-01-17T04:21:28.116Z,94.94
2023-01-17T04:23:56.030Z,96.07
2023-01-17T04:26:23.972Z,98.08
2023-01-17T04:28:53.296Z,98.48
2023-01-17T04:31:21.361Z,97.61
2023-01-17T04:33:49.384Z,97.57
2023-01-17T04:36:18.007Z,97.20
2023-01-17T04:38:45.913Z,98.46
2023-01-17T04:41:13.866Z,99.32
2023-01-17T04:43:41.805Z,99.93
2023-01-17T04:46:11.335Z,100.00
2023-01-17T04:48:39.376Z,100.00
2023-01-17T04:51:07.425Z,100.00
2023-01-17T04:53:35.366Z,100.00
2023-01-17T04:56:03.250Z,100.00
2023-01-17T04:58:33.269Z,100.00
2023-01-17T05:01:04.918Z,100.00
2023-01-17T05:03:35.364Z,100.00
2023-01-17T05:06:03.487Z,100.00
2023-01-17T05:08:31.438Z,100.00
2023-01-17T05:10:59.344Z,100.00
2023-01-17T05:13:27.511Z,100.00
2023-01-17T05:15:57.085Z,100.00
2023-01-17T05:18:25.333Z,100.00
2023-01-17T05:20:54.691Z,100.00
2023-01-17T05:23:22.689Z,100.00
2023-01-17T05:25:50.579Z,100.00
2023-01-17T05:28:18.569Z,100.00
2023-01-17T05:30:49.289Z,100.00
2023-01-17T05:33:17.312Z,100.00
2023-01-17T05:35:45.277Z,100.00
2023-01-17T05:38:14.539Z,100.00
2023-01-17T05:40:42.753Z,100.00
2023-01-17T05:43:10.789Z,100.00
2023-01-17T05:45:39.447Z,100.00
2023-01-17T05:48:07.701Z,100.00
2023-01-17T05:50:37.114Z,100.00
2023-01-17T05:53:07.067Z,100.00
2023-01-17T05:55:37.286Z,100.00
2023-01-17T05:58:06.568Z,100.00
2023-01-17T06:00:34.587Z,100.00
2023-01-17T06:03:02.798Z,100.00
2023-01-17T06:05:32.510Z,100.00
2023-01-17T06:08:00.685Z,100.00
2023-01-17T06:10:29.408Z,100.00
2023-01-17T06:13:10.809Z,100.00
2023-01-17T06:15:39.416Z,100.00
2023-01-17T06:18:08.103Z,100.00
2023-01-17T06:20:37.969Z,100.00
2023-01-17T06:23:30.838Z,100.00
2023-01-17T06:25:58.753Z,100.00
2023-01-17T06:28:28.062Z,100.00
2023-01-17T06:31:06.834Z,100.00
2023-01-17T06:33:34.930Z,100.00
2023-01-17T06:36:05.116Z,100.00
2023-01-17T06:38:33.275Z,100.00
2023-01-17T06:41:05.315Z,100.00
2023-01-17T06:43:37.573Z,100.00
2023-01-17T06:46:05.551Z,100.00
2023-01-17T06:48:33.522Z,100.00
2023-01-17T06:51:01.544Z,100.00
2023-01-17T06:53:29.500Z,100.00
2023-01-17T06:55:58.083Z,100.00
2023-01-17T06:58:26.064Z,100.00
2023-01-17T07:00:55.727Z,100.00
2023-01-17T07:03:25.742Z,100.00
2023-01-17T07:05:54.214Z,100.00
2023-01-17T07:08:22.308Z,100.00
2023-01-17T07:10:50.304Z,100.00
2023-01-17T07:13:18.291Z,100.00
2023-01-17T07:15:46.273Z,100.00
2023-01-17T07:18:20.390Z,100.00
2023-01-17T07:20:49.112Z,100.00
2023-01-17T07:23:17.088Z,100.00
2023-01-17T07:25:45.017Z,100.00
2023-01-17T07:28:12.909Z,100.00
2023-01-17T07:30:40.900Z,100.00
2023-01-17T07:33:19.359Z,100.00
2023-01-17T07:35:47.516Z,100.00
2023-01-17T07:38:22.537Z,100.00
2023-01-17T07:40:53.179Z,100.00
2023-01-17T07:43:23.404Z,100.00
2023-01-17T07:45:51.974Z,100.00
2023-01-17T07:48:24.097Z,100.00
2023-01-17T07:51:00.397Z,100.00
2023-01-17T07:53:29.927Z,100.00
2023-01-17T07:56:02.512Z,100.00
2023-01-17T07:58:30.591Z,100.00
2023-01-17T08:01:04.036Z,100.00
2023-01-17T08:03:37.849Z,100.00
2023-01-17T08:06:09.595Z,100.00
2023-01-17T08:08:40.192Z,100.00
2023-01-17T08:11:12.841Z,100.00
2023-01-17T08:13:41.892Z,100.00
2023-01-17T08:16:11.228Z,100.00
2023-01-17T08:18:41.312Z,100.00
2023-01-17T08:21:16.733Z,100.00
2023-01-17T08:23:49.413Z,100.00
2023-01-17T08:26:22.543Z,100.00
2023-01-17T08:28:51.018Z,100.00
2023-01-17T08:31:19.851Z,100.00
2023-01-17T08:33:49.583Z,100.00
2023-01-17T08:36:19.125Z,100.00
2023-01-17T08:38:47.130Z,100.00
2023-01-17T08:41:15.106Z,100.00
2023-01-17T08:43:43.306Z,100.00
2023-01-17T08:46:11.484Z,100.00
2023-01-17T08:48:41.548Z,100.00
2023-01-17T08:51:12.355Z,100.00
2023-01-17T08:53:40.620Z,100.00
2023-01-17T08:56:08.948Z,99.87
2023-01-17T08:58:36.870Z,100.00
2023-01-17T09:01:08.780Z,100.00
2023-01-17T09:03:38.906Z,100.00
2023-01-17T09:06:13.392Z,100.00
2023-01-17T09:08:46.754Z,99.78
2023-01-17T09:11:19.769Z,99.01
2023-01-17T09:13:50.230Z,98.88
2023-01-17T09:16:21.111Z,98.02
2023-01-17T09:18:49.063Z,99.27
2023-01-17T09:21:19.028Z,97.06
2023-01-17T09:23:47.035Z,97.43
2023-01-17T09:26:19.669Z,97.05
2023-01-17T09:28:47.764Z,96.98
2023-01-17T09:31:17.642Z,95.76
2023-01-17T09:33:45.860Z,94.60
2023-01-17T09:36:13.932Z,94.41
2023-01-17T09:38:43.389Z,93.80
2023-01-17T09:41:22.803Z,94.61
2023-01-17T09:43:55.560Z,93.09
2023-01-17T09:46:27.705Z,93.10
2023-01-17T09:49:07.358Z,92.72
2023-01-17T09:51:35.431Z,92.43
2023-01-17T09:54:05.350Z,93.08
2023-01-17T09:56:38.212Z,93.12
2023-01-17T09:59:19.543Z,95.62
2023-01-17T10:01:58.529Z,96.85
2023-01-17T10:04:51.324Z,96.66
2023-01-17T10:07:32.371Z,97.19
2023-01-17T10:10:22.679Z,96.29
2023-01-17T10:12:57.257Z,96.73
2023-01-17T10:15:39.007Z,95.54
2023-01-17T10:18:30.478Z,96.11
2023-01-17T10:21:05.656Z,95.22
2023-01-17T10:23:47.595Z,95.53
2023-01-17T10:26:19.051Z,95.84
2023-01-17T10:28:51.566Z,96.10
2023-01-17T10:31:23.741Z,96.67
2023-01-17T10:33:53.583Z,96.88
2023-01-17T10:36:23.628Z,98.45
2023-01-17T10:38:54.531Z,98.37
2023-01-17T10:41:30.136Z,99.07
2023-01-17T10:44:08.791Z,99.06
2023-01-17T10:46:42.384Z,100.00
2023-01-17T10:49:16.701Z,99.88
2023-01-17T10:52:01.045Z,100.00
2023-01-17T10:54:55.106Z,100.00
2023-01-17T10:57:31.421Z,100.00
2023-01-17T11:00:06.243Z,100.00
2023-01-17T11:02:41.905Z,100.00
2023-01-17T11:05:21.451Z,100.00
2023-01-17T11:07:58.751Z,100.00
2023-01-17T11:10:37.919Z,100.00
2023-01-17T11:13:18.490Z,100.00
2023-01-17T11:15:49.448Z,100.00
2023-01-17T11:18:19.252Z,100.00
2023-01-17T11:20:47.984Z,100.00
2023-01-17T11:23:18.465Z,100.00
2023-01-17T11:25:50.581Z,100.00
2023-01-17T11:28:26.246Z,100.00
2023-01-17T11:30:57.042Z,100.00
2023-01-17T11:33:45.945Z,100.00
2023-01-17T11:36:19.285Z,100.00
2023-01-17T11:38:59.042Z,100.00
2023-01-17T11:41:31.819Z,100.00
2023-01-17T11:44:02.643Z,100.00
2023-01-17T11:46:31.640Z,100.00
2023-01-17T11:49:01.528Z,100.00
2023-01-17T11:51:32.588Z,100.00
2023-01-17T11:54:19.366Z,100.00
2023-01-17T11:56:47.271Z,100.00
2023-01-17T11:59:25.806Z,100.00
2023-01-17T12:02:18.930Z,100.00
2023-01-17T12:04:50.134Z,100.00
2023-01-17T12:07:28.337Z,100.00
2023-01-17T12:10:06.235Z,100.00
2023-01-17T12:13:03.677Z,100.00
2023-01-17T12:15:50.901Z,100.00
2023-01-17T12:18:49.669Z,100.00
2023-01-17T12:21:25.779Z,100.00
2023-01-17T12:24:15.695Z,100.00
2023-01-17T12:26:51.018Z,100.00
2023-01-17T12:29:35.664Z,100.00
2023-01-17T12:32:18.578Z,100.00
2023-01-17T12:34:51.768Z,100.00
2023-01-17T12:37:25.280Z,100.00
2023-01-17T12:39:58.908Z,100.00
2023-01-17T12:42:32.065Z,100.00
2023-01-17T12:45:06.321Z,100.00
2023-01-17T12:47:43.184Z,100.00
2023-01-17T12:50:22.323Z,100.00
2023-01-17T12:52:59.555Z,100.00
2023-01-17T12:55:35.689Z,100.00
2023-01-17T12:58:08.320Z,100.00
2023-01-17T13:00:40.113Z,100.00
2023-01-17T13:03:17.619Z,100.00
2023-01-17T13:05:48.550Z,96.53
2023-01-17T13:08:25.294Z,98.45
2023-01-17T13:10:57.266Z,97.21
2023-01-17T13:13:26.955Z,97.08
2023-01-17T13:15:58.768Z,99.65
2023-01-17T13:18:33.076Z,98.00
2023-01-17T13:21:18.711Z,96.48
2023-01-17T13:24:05.937Z,94.10
2023-01-17T13:26:49.811Z,95.84
2023-01-17T13:29:26.496Z,96.12
2023-01-17T13:32:07.285Z,95.37
2023-01-17T13:35:01.761Z,95.75
2023-01-17T13:38:05.360Z,95.01
2023-01-17T13:40:37.419Z,95.26
2023-01-17T13:43:13.122Z,96.19
2023-01-17T13:45:42.080Z,97.12
2023-01-17T13:48:34.484Z,97.90
2023-01-17T13:51:05.458Z,98.40
2023-01-17T13:54:00.256Z,97.59
2023-01-17T13:56:34.043Z,96.57
2023-01-17T13:59:26.913Z,97.32
2023-01-17T14:01:55.721Z,96.54
2023-01-17T14:04:25.851Z,94.32
2023-01-17T14:06:59.419Z,93.61
2023-01-17T14:09:33.379Z,91.34
2023-01-17T14:12:07.460Z,91.43
2023-01-17T14:14:55.609Z,90.15
2023-01-17T14:17:56.772Z,90.86
2023-01-17T14:21:00.239Z,91.21
2023-01-17T14:23:47.704Z,91.74
2023-01-17T14:26:36.595Z,92.00
2023-01-17T14:29:41.797Z,92.44
2023-01-17T14:32:13.192Z,92.87
2023-01-17T14:34:41.747Z,93.40
2023-01-17T14:37:19.494Z,93.49
2023-01-17T14:39:51.485Z,93.69
2023-01-17T14:42:23.168Z,93.56
2023-01-17T14:44:53.913Z,93.72
2023-01-17T14:47:22.395Z,94.35
2023-01-17T14:49:50.410Z,95.52
2023-01-17T14:52:19.372Z,92.84
2023-01-17T14:54:53.278Z,94.17
2023-01-17T14:57:27.846Z,94.48
2023-01-17T15:00:18.865Z,93.97
2023-01-17T15:02:48.993Z,94.89
2023-01-17T15:05:20.162Z,94.09
2023-01-17T15:07:52.913Z,94.72
2023-01-17T15:10:25.718Z,95.60
2023-01-17T15:12:54.064Z,96.59
2023-01-17T15:15:32.118Z,99.12
2023-01-17T15:18:26.892Z,99.18
2023-01-17T15:20:59.789Z,100.00
2023-01-17T15:23:31.716Z,100.00
2023-01-17T15:26:02.634Z,100.00
2023-01-17T15:28:32.024Z,100.00
2023-01-17T15:31:08.756Z,100.00
2023-01-17T15:33:39.095Z,100.00
2023-01-17T15:36:09.733Z,100.00
2023-01-17T15:38:41.460Z,100.00
2023-01-17T15:41:14.542Z,100.00
2023-01-17T15:43:44.081Z,100.00
2023-01-17T15:46:32.982Z,100.00
2023-01-17T15:49:09.502Z,100.00
2023-01-17T15:51:41.514Z,100.00
2023-01-17T15:54:34.491Z,100.00
2023-01-17T15:57:06.712Z,100.00
2023-01-17T15:59:45.842Z,100.00
2023-01-17T16:02:38.854Z,100.00
2023-01-17T16:05:41.656Z,100.00
2023-01-17T16:08:33.392Z,100.00
2023-01-17T16:11:03.324Z,100.00
2023-01-17T16:13:34.943Z,100.00
2023-01-17T16:16:19.191Z,100.00
2023-01-17T16:18:49.008Z,100.00
2023-01-17T16:21:20.915Z,100.00
2023-01-17T16:23:49.453Z,100.00
2023-01-17T16:26:18.178Z,99.46
2023-01-17T16:28:47.862Z,98.77
2023-01-17T16:31:16.500Z,96.86
2023-01-17T16:33:46.149Z,97.99
2023-01-17T16:36:16.441Z,99.54
2023-01-17T16:38:45.919Z,99.41
2023-01-17T16:41:14.023Z,99.36
2023-01-17T16:43:42.194Z,98.96
2023-01-17T16:46:13.017Z,99.85
2023-01-17T16:48:41.171Z,99.23
2023-01-17T16:51:09.634Z,98.98
2023-01-17T16:53:38.199Z,98.28
2023-01-17T16:56:12.604Z,99.22
2023-01-17T16:58:41.512Z,100.00
2023-01-17T17:01:15.339Z,99.23
2023-01-17T17:03:43.907Z,100.00
2023-01-17T17:06:13.208Z,100.00
2023-01-17T17:08:44.163Z,100.00
2023-01-17T17:11:14.614Z,100.00
2023-01-17T17:13:44.611Z,100.00
2023-01-17T17:16:16.540Z,100.00
2023-01-17T17:18:46.089Z,100.00
2023-01-17T17:21:14.587Z,100.00
2023-01-17T17:23:42.821Z,100.00
2023-01-17T17:26:11.115Z,100.00
2023-01-17T17:28:39.325Z,100.00
2023-01-17T17:31:10.454Z,100.00
2023-01-17T17:33:40.137Z,100.00
2023-01-17T17:36:11.055Z,100.00
2023-01-17T17:38:50.900Z,100.00
2023-01-17T17:41:21.639Z,100.00
2023-01-17T17:43:51.098Z,100.00
2023-01-17T17:46:20.619Z,100.00
2023-01-17T17:48:50.380Z,100.00
2023-01-17T17:51:27.430Z,100.00
2023-01-17T17:53:57.187Z,100.00
2023-01-17T17:56:25.351Z,100.00
2023-01-17T17:58:53.652Z,100.00
2023-01-17T18:01:24.073Z,100.00
2023-01-17T18:03:57.639Z,100.00
2023-01-17T18:06:25.586Z,100.00
2023-01-17T18:08:53.949Z,100.00
2023-01-17T18:11:24.346Z,100.00
2023-01-17T18:13:53.055Z,100.00
2023-01-17T18:16:24.067Z,100.00
2023-01-17T18:18:54.625Z,100.00
2023-01-17T18:21:25.149Z,100.00
2023-01-17T18:23:55.294Z,100.00
2023-01-17T18:26:25.357Z,100.00
2023-01-17T18:28:54.966Z,100.00
2023-01-17T18:31:25.039Z,100.00
2023-01-17T18:33:55.056Z,100.00
2023-01-17T18:36:24.382Z,100.00
2023-01-17T18:38:53.130Z,100.00
2023-01-17T18:41:23.391Z,100.00
2023-01-17T18:43:51.379Z,100.00
2023-01-17T18:46:20.816Z,100.00
2023-01-17T18:48:48.839Z,100.00
2023-01-17T18:51:20.522Z,100.00
2023-01-17T18:53:48.548Z,100.00
2023-01-17T18:56:19.882Z,100.00
2023-01-17T18:58:50.132Z,100.00
2023-01-17T19:01:20.985Z,100.00
2023-01-17T19:03:50.940Z,100.00
2023-01-17T19:06:22.631Z,100.00
2023-01-17T19:08:51.697Z,100.00
2023-01-17T19:11:20.595Z,100.00
2023-01-17T19:13:50.175Z,100.00
2023-01-17T19:16:19.896Z,100.00
2023-01-17T19:18:48.253Z,100.00
2023-01-17T19:21:18.850Z,100.00
2023-01-17T19:23:48.224Z,100.00
2023-01-17T19:26:17.595Z,100.00
2023-01-17T19:28:47.251Z,100.00
2023-01-17T19:31:16.917Z,100.00
2023-01-17T19:33:46.804Z,100.00
2023-01-17T19:36:17.042Z,100.00
2023-01-17T19:38:55.309Z,100.00
2023-01-17T19:41:32.503Z,100.00
2023-01-17T19:44:02.001Z,100.00
2023-01-17T19:46:30.175Z,100.00
2023-01-17T19:48:59.481Z,100.00
2023-01-17T19:51:28.121Z,100.00
2023-01-17T19:53:56.756Z,100.00
2023-01-17T19:56:26.829Z,100.00
2023-01-17T19:59:00.592Z,100.00
2023-01-17T20:01:30.538Z,100.00
2023-01-17T20:03:59.367Z,100.00
2023-01-17T20:06:29.735Z,100.00
2023-01-17T20:08:58.092Z,100.00
2023-01-17T20:11:27.141Z,100.00
2023-01-17T20:13:58.450Z,100.00
2023-01-17T20:16:28.213Z,100.00
2023-01-17T20:18:56.350Z,100.00
2023-01-17T20:21:26.128Z,100.00
2023-01-17T20:23:55.553Z,100.00
2023-01-17T20:26:25.396Z,100.00
2023-01-17T20:28:54.549Z,100.00
2023-01-17T20:31:26.551Z,100.00
2023-01-17T20:33:56.119Z,100.00
2023-01-17T20:36:25.686Z,100.00
2023-01-17T20:38:54.422Z,100.00
2023-01-17T20:41:24.334Z,100.00
2023-01-17T20:43:54.293Z,100.00
2023-01-17T20:46:25.791Z,100.00
2023-01-17T20:48:55.385Z,100.00
2023-01-17T20:51:24.964Z,100.00
2023-01-17T20:53:55.850Z,100.00
2023-01-17T20:56:25.788Z,100.00
2023-01-17T20:58:54.441Z,100.00
2023-01-17T21:01:24.388Z,100.00
2023-01-17T21:03:53.957Z,100.00
2023-01-17T21:06:23.466Z,100.00
2023-01-17T21:08:52.096Z,100.00
2023-01-17T21:11:21.853Z,100.00
2023-01-17T21:13:49.811Z,100.00
2023-01-17T21:16:20.256Z,100.00
2023-01-17T21:18:50.915Z,100.00
2023-01-17T21:21:21.858Z,100.00
2023-01-17T21:23:50.960Z,100.00
2023-01-17T21:26:20.463Z,100.00
2023-01-17T21:28:50.064Z,100.00
2023-01-17T21:31:22.990Z,100.00
2023-01-17T21:33:54.199Z,100.00
2023-01-17T21:36:24.119Z,100.00
2023-01-17T21:38:53.208Z,100.00
2023-01-17T21:41:22.764Z,100.00
2023-01-17T21:43:55.258Z,100.00
2023-01-17T21:46:23.716Z,100.00
2023-01-17T21:48:53.305Z,100.00
2023-01-17T21:51:21.758Z,100.00
2023-01-17T21:53:49.774Z,100.00
2023-01-17T21:56:35.132Z,100.00
2023-01-17T21:59:03.033Z,100.00
2023-01-17T22:01:34.010Z,100.00
2023-01-17T22:04:05.093Z,100.00
2023-01-17T22:06:35.224Z,100.00
2023-01-17T22:09:04.480Z,100.00
2023-01-17T22:11:32.723Z,100.00
2023-01-17T22:14:02.539Z,100.00
2023-01-17T22:16:30.542Z,100.00
2023-01-17T22:18:59.021Z,100.00
2023-01-17T22:21:29.672Z,100.00
2023-01-17T22:23:59.992Z,100.00
2023-01-17T22:26:30.002Z,100.00
2023-01-17T22:29:02.386Z,100.00
2023-01-17T22:31:30.882Z,100.00
2023-01-17T22:34:00.887Z,100.00
2023-01-17T22:36:32.701Z,100.00
2023-01-17T22:39:01.363Z,100.00
2023-01-17T22:41:31.205Z,100.00
2023-01-17T22:44:02.052Z,100.00
2023-01-17T22:46:32.216Z,100.00
2023-01-17T22:49:01.417Z,100.00
2023-01-17T22:51:30.853Z,100.00
2023-01-17T22:54:00.796Z,100.00
2023-01-17T22:56:30.621Z,100.00
2023-01-17T22:59:00.549Z,100.00
2023-01-17T23:01:29.968Z,100.00
2023-01-17T23:03:59.347Z,100.00
2023-01-17T23:06:28.777Z,100.00
2023-01-17T23:08:59.971Z,100.00
2023-01-17T23:11:42.538Z,100.00
2023-01-17T23:14:14.515Z,100.00
2023-01-17T23:17:01.861Z,100.00
2023-01-17T23:19:33.577Z,100.00
2023-01-17T23:22:19.035Z,100.00
2023-01-17T23:24:50.922Z,100.00
2023-01-17T23:27:39.073Z,100.00
2023-01-17T23:30:10.677Z,100.00
2023-01-17T23:32:39.009Z,100.00
2023-01-17T23:35:07.731Z,100.00
2023-01-17T23:37:53.062Z,100.00
2023-01-17T23:40:22.373Z,100.00
2023-01-17T23:43:07.781Z,100.00
2023-01-17T23:45:36.718Z,100.00
2023-01-17T23:48:09.272Z,100.00
2023-01-17T23:50:37.918Z,100.00
2023-01-17T23:53:07.874Z,100.00
2023-01-17T23:55:39.090Z,100.00
2023-01-17T23:58:08.663Z,100.00
